Time;durP1;ratioP1;P1;durP2;ratioP2;P2;SDS_P1;SDS_P2;PMS_P1;PMS_P2;Temp;Humidity;BMP_temperature;BMP_pressure;BME280_temperature;BME280_humidity;BME280_pressure;Samples;Min_cycle;Max_cycle;Signal;HPM_P1;HPM_P2
2023/05/21 00:01:02;;;;;;;4.78;2.60;;;;;;;15.53;100.00;102050.25;4999481;28;20109;-61
2023/05/21 00:03:29;;;;;;;6.13;3.00;;;;;;;15.50;100.00;102060.13;4989795;28;20042;-62
2023/05/21 00:05:55;;;;;;;6.20;2.95;;;;;;;15.54;100.00;102056.44;4988689;28;20037;-63
2023/05/21 00:08:20;;;;;;;3.47;2.63;;;;;;;15.63;100.00;102057.88;4990029;28;20026;-60
2023/05/21 00:10:46;;;;;;;5.57;3.10;;;;;;;15.70;100.00;102058.53;4981236;28;20018;-59
2023/05/21 00:13:11;;;;;;;5.30;2.90;;;;;;;15.68;100.00;102050.59;4971266;28;20057;-60
2023/05/21 00:15:37;;;;;;;4.90;3.13;;;;;;;15.54;100.00;102048.47;4969687;28;20031;-61
2023/05/21 00:18:02;;;;;;;4.72;2.72;;;;;;;15.52;100.00;102045.84;4969810;28;20462;-59
2023/05/21 00:20:30;;;;;;;4.40;2.90;;;;;;;15.57;100.00;102047.47;4969930;28;20054;-59
2023/05/21 00:22:56;;;;;;;5.65;2.90;;;;;;;15.54;100.00;102037.84;4970034;28;20034;-60
2023/05/21 00:25:22;;;;;;;5.97;3.08;;;;;;;15.48;100.00;102043.34;4969316;28;20133;-60
2023/05/21 00:27:48;;;;;;;8.90;3.08;;;;;;;15.42;100.00;102049.75;4969285;28;20030;-61
2023/05/21 00:30:14;;;;;;;10.75;3.50;;;;;;;15.36;100.00;102044.66;4970132;28;20029;-61
2023/05/21 00:32:39;;;;;;;5.57;3.20;;;;;;;15.34;100.00;102042.06;4969999;28;20031;-60
2023/05/21 00:35:05;;;;;;;6.68;3.20;;;;;;;15.39;100.00;102044.56;4969649;28;20061;-63
2023/05/21 00:37:33;;;;;;;4.30;3.30;;;;;;;15.40;100.00;102040.97;4981305;28;20061;-61
2023/05/21 00:39:58;;;;;;;7.07;3.30;;;;;;;15.29;100.00;102030.72;4989290;28;20088;-60
2023/05/21 00:42:26;;;;;;;7.45;3.47;;;;;;;15.21;100.00;102038.97;4988910;28;20026;-61
2023/05/21 00:44:54;;;;;;;6.93;3.38;;;;;;;15.34;100.00;102036.75;4989685;28;20708;-60
2023/05/21 00:47:20;;;;;;;9.23;3.23;;;;;;;15.36;100.00;102034.91;4988757;28;20038;-59
2023/05/21 00:49:47;;;;;;;5.85;3.28;;;;;;;15.40;100.00;102036.53;4988641;28;20280;-59
2023/05/21 00:52:13;;;;;;;6.25;3.40;;;;;;;15.49;100.00;102026.50;4988505;28;20018;-62
2023/05/21 00:54:40;;;;;;;5.57;3.40;;;;;;;15.58;100.00;102027.94;4988007;28;20030;-59
2023/05/21 00:57:05;;;;;;;7.80;3.80;;;;;;;15.50;100.00;102025.59;5003538;28;20030;-60
2023/05/21 00:59:32;;;;;;;4.32;3.22;;;;;;;15.53;100.00;102028.09;4988733;28;20398;-61
2023/05/21 01:02:02;;;;;;;6.47;3.38;;;;;;;15.45;100.00;102025.75;4988239;28;20030;-60
2023/05/21 01:04:29;;;;;;;4.95;3.03;;;;;;;15.55;100.00;102026.28;4988014;28;20046;-60
2023/05/21 01:06:55;;;;;;;6.82;3.47;;;;;;;15.53;100.00;102023.66;4981209;28;20574;-59
2023/05/21 01:09:20;;;;;;;4.00;3.30;;;;;;;15.44;100.00;102020.50;4968670;28;20359;-60
2023/05/21 01:11:47;;;;;;;11.07;3.83;;;;;;;15.57;100.00;102023.56;4971358;28;20042;-60
2023/05/21 01:14:14;;;;;;;4.10;3.30;;;;;;;15.68;100.00;102012.56;4988771;28;20430;-62
2023/05/21 01:16:41;;;;;;;4.72;3.55;;;;;;;15.67;100.00;102011.69;4971448;28;20121;-59
2023/05/21 01:19:08;;;;;;;6.85;3.70;;;;;;;15.68;100.00;102012.56;4988463;28;20026;-59
2023/05/21 01:21:36;;;;;;;4.38;3.42;;;;;;;15.71;100.00;102005.31;5002815;28;20030;-60
2023/05/21 01:24:04;;;;;;;5.88;3.53;;;;;;;15.65;100.00;102010.84;4988395;28;20033;-59
2023/05/21 01:26:32;;;;;;;8.80;3.80;;;;;;;15.78;100.00;102008.63;4987915;28;20038;-60
2023/05/21 01:28:57;;;;;;;8.07;3.75;;;;;;;15.78;100.00;102005.97;4986997;28;20397;-60
2023/05/21 01:31:27;;;;;;;7.45;3.22;;;;;;;15.78;100.00;102003.31;4986653;28;20027;-60
2023/05/21 01:33:55;;;;;;;7.78;3.50;;;;;;;15.90;100.00;102002.84;4975629;28;20023;-61
2023/05/21 01:36:31;;;;;;;7.47;3.65;;;;;;;15.85;100.00;102001.28;4967915;28;20557;-59
2023/05/21 01:39:02;;;;;;;4.00;3.17;;;;;;;15.89;100.00;102000.22;4966031;28;20445;-63
2023/05/21 01:41:32;;;;;;;5.30;3.17;;;;;;;15.88;100.00;101995.84;4968751;28;20062;-60
2023/05/21 01:43:57;;;;;;;5.53;3.65;;;;;;;15.83;100.00;102001.34;4966710;28;20065;-60
2023/05/21 01:46:25;;;;;;;6.50;3.25;;;;;;;15.88;100.00;102004.72;4968774;28;20062;-60
2023/05/21 01:48:51;;;;;;;6.72;3.55;;;;;;;15.94;100.00;102008.91;4967764;28;20029;-60
2023/05/21 01:51:17;;;;;;;6.70;3.90;;;;;;;15.93;100.00;102007.19;4968509;28;20030;-61
2023/05/21 01:53:42;;;;;;;10.35;4.07;;;;;;;15.88;100.00;102012.69;5002322;28;20038;-65
2023/05/21 01:56:07;;;;;;;10.30;3.40;;;;;;;15.75;100.00;102009.59;4986442;28;20030;-61
2023/05/21 01:58:33;;;;;;;3.72;3.20;;;;;;;15.79;100.00;102007.69;4986424;28;20990;-63
2023/05/21 02:00:58;;;;;;;7.05;3.50;;;;;;;15.83;100.00;102006.66;4967074;28;20195;-61
2023/05/21 02:03:26;;;;;;;4.90;3.88;;;;;;;15.73;100.00;102011.47;4968670;28;20610;-61
2023/05/21 02:05:51;;;;;;;3.20;2.90;;;;;;;15.88;100.00;102006.47;4967538;28;20058;-62
2023/05/21 02:08:18;;;;;;;8.77;3.70;;;;;;;15.91;100.00;102007.25;4980160;28;20076;-58
2023/05/21 02:10:43;;;;;;;6.55;3.47;;;;;;;15.88;100.00;102015.34;4987216;28;20476;-62
2023/05/21 02:13:09;;;;;;;4.55;3.67;;;;;;;15.87;100.00;101997.63;4983360;28;20039;-59
2023/05/21 02:15:34;;;;;;;6.72;3.85;;;;;;;15.88;100.00;102003.81;4983688;28;20033;-61
2023/05/21 02:18:00;;;;;;;4.72;3.55;;;;;;;15.95;100.00;102000.00;4987451;28;20643;-59
2023/05/21 02:20:25;;;;;;;6.20;3.63;;;;;;;15.95;100.00;102002.66;4984368;28;20475;-60
2023/05/21 02:22:50;;;;;;;6.63;3.55;;;;;;;15.95;100.00;101993.84;4987690;28;20030;-60
2023/05/21 02:25:18;;;;;;;5.18;3.67;;;;;;;15.88;100.00;102002.03;4983515;28;20061;-60
2023/05/21 02:27:45;;;;;;;7.38;4.22;;;;;;;15.74;100.00;101999.91;4970168;28;20538;-61
2023/05/21 02:30:11;;;;;;;4.82;3.38;;;;;;;15.94;100.00;102002.72;4967541;28;20053;-60
2023/05/21 02:32:41;;;;;;;5.60;3.65;;;;;;;15.87;100.00;101997.63;4981401;28;20084;-57
2023/05/21 02:35:07;;;;;;;7.18;4.05;;;;;;;15.83;100.00;102003.16;4987061;28;20030;-61
2023/05/21 02:37:33;;;;;;;4.22;3.38;;;;;;;15.83;100.00;102005.81;4982254;28;20030;-59
2023/05/21 02:39:59;;;;;;;5.35;3.50;;;;;;;15.81;100.00;102000.56;4982157;28;20022;-62
2023/05/21 02:42:25;;;;;;;8.48;4.00;;;;;;;15.70;100.00;102000.94;4986927;28;20170;-60
2023/05/21 02:44:50;;;;;;;5.07;3.90;;;;;;;15.80;100.00;102006.75;4982284;28;20129;-61
2023/05/21 02:47:17;;;;;;;5.28;3.42;;;;;;;15.68;100.00;102001.94;4987323;28;20034;-61
2023/05/21 02:49:42;;;;;;;5.88;3.13;;;;;;;15.60;100.00;102005.75;4986253;28;20077;-62
2023/05/21 02:52:08;;;;;;;3.92;2.90;;;;;;;15.90;100.00;102002.84;4973821;28;20611;-60
2023/05/21 02:54:33;;;;;;;20.45;4.32;;;;;;;15.76;100.00;101994.53;4967084;28;20367;-60
2023/05/21 02:56:58;;;;;;;8.48;3.75;;;;;;;15.98;100.00;101994.59;4973681;28;20477;-60
2023/05/21 02:59:24;;;;;;;4.70;3.72;;;;;;;15.77;100.00;102001.56;4987255;28;20030;-62
2023/05/21 03:01:49;;;;;;;5.30;3.63;;;;;;;15.90;100.00;101994.88;4986125;28;20125;-60
2023/05/21 03:04:16;;;;;;;6.68;3.92;;;;;;;15.91;100.00;101993.09;4983432;28;20034;-61
2023/05/21 03:06:41;;;;;;;12.32;4.00;;;;;;;15.89;100.00;102000.22;4990391;28;20521;-60
2023/05/21 03:09:07;;;;;;;4.57;3.53;;;;;;;16.00;100.00;101999.88;4984696;28;20038;-60
2023/05/21 03:11:32;;;;;;;7.38;3.85;;;;;;;15.91;100.00;102001.94;4990255;28;20031;-58
2023/05/21 03:13:57;;;;;;;10.73;3.65;;;;;;;15.90;100.00;101994.88;4990419;28;20569;-62
2023/05/21 03:16:23;;;;;;;4.47;3.70;;;;;;;15.78;100.00;101996.19;4987573;28;20117;-60
2023/05/21 03:18:48;;;;;;;5.90;3.60;;;;;;;15.83;100.00;101990.72;4990993;28;20116;-59
2023/05/21 03:21:14;;;;;;;4.80;3.53;;;;;;;15.70;100.00;101992.97;4984495;28;20030;-60
2023/05/21 03:23:41;;;;;;;6.10;3.65;;;;;;;15.75;100.00;101991.00;4989606;28;20046;-60
2023/05/21 03:26:07;;;;;;;4.43;3.72;;;;;;;15.85;100.00;101988.88;4989675;28;20429;-59
2023/05/21 03:28:32;;;;;;;10.80;3.80;;;;;;;15.85;100.00;101985.34;4987754;28;20878;-59
2023/05/21 03:30:58;;;;;;;8.35;4.00;;;;;;;15.72;100.00;101979.63;4990323;28;20049;-60
2023/05/21 03:33:23;;;;;;;6.93;3.75;;;;;;;15.83;100.00;101985.41;4971079;28;20504;-59
2023/05/21 03:35:48;;;;;;;11.10;4.13;;;;;;;15.92;100.00;101986.84;4989237;28;20028;-61
2023/05/21 03:38:14;;;;;;;4.97;4.05;;;;;;;15.82;100.00;101989.00;4990716;28;20106;-60
2023/05/21 03:40:39;;;;;;;6.80;3.95;;;;;;;15.77;100.00;101977.66;4987629;28;20054;-59
2023/05/21 03:43:04;;;;;;;8.43;4.32;;;;;;;15.77;100.00;101982.97;4985544;28;20113;-59
2023/05/21 03:45:29;;;;;;;9.82;4.00;;;;;;;15.82;100.00;101980.13;4990324;28;20035;-59
2023/05/21 03:47:55;;;;;;;6.20;4.18;;;;;;;15.74;100.00;101975.97;4987033;28;20023;-60
2023/05/21 03:50:20;;;;;;;7.15;3.95;;;;;;;15.75;100.00;101990.16;4989960;28;20030;-60
2023/05/21 03:52:45;;;;;;;5.57;4.00;;;;;;;15.83;100.00;101989.88;4989563;28;20365;-62
2023/05/21 03:55:11;;;;;;;9.07;4.38;;;;;;;15.90;100.00;101984.22;4986308;28;20064;-60
2023/05/21 03:57:36;;;;;;;6.25;3.85;;;;;;;15.90;100.00;101992.19;4989645;28;20033;-61
2023/05/21 04:00:03;;;;;;;9.18;4.50;;;;;;;15.76;100.00;101984.78;4986556;28;20473;-60
2023/05/21 04:02:29;;;;;;;6.07;4.35;;;;;;;15.81;100.00;101989.91;4987988;28;20053;-62
2023/05/21 04:04:54;;;;;;;6.53;4.22;;;;;;;15.89;100.00;101987.81;4978893;28;20577;-60
2023/05/21 04:07:20;;;;;;;4.97;4.13;;;;;;;15.75;100.00;101987.50;4986518;28;20026;-60
2023/05/21 04:09:45;;;;;;;5.88;4.15;;;;;;;15.75;100.00;101982.16;4985375;28;20045;-61
2023/05/21 04:12:11;;;;;;;5.63;4.65;;;;;;;15.86;100.00;101987.09;4983121;28;20347;-60
2023/05/21 04:14:36;;;;;;;7.70;4.13;;;;;;;15.84;100.00;101983.63;4982483;28;20039;-59
2023/05/21 04:17:04;;;;;;;6.22;4.13;;;;;;;15.96;100.00;101987.59;4965758;28;20097;-62
2023/05/21 04:19:29;;;;;;;8.10;4.30;;;;;;;15.99;100.00;101990.16;4967408;28;20042;-60
2023/05/21 04:21:57;;;;;;;5.75;4.05;;;;;;;15.95;100.00;101983.22;4968936;28;20066;-59
2023/05/21 04:24:22;;;;;;;5.78;4.38;;;;;;;16.17;100.00;101991.25;4968607;28;20022;-60
2023/05/21 04:26:48;;;;;;;7.30;4.30;;;;;;;16.21;100.00;101989.31;4969177;28;20022;-59
2023/05/21 04:29:16;;;;;;;8.43;4.55;;;;;;;16.25;100.00;101990.91;4969975;28;20031;-60
2023/05/21 04:31:42;;;;;;;7.13;4.57;;;;;;;16.19;100.00;101988.53;4970657;28;20033;-62
2023/05/21 04:34:07;;;;;;;11.45;4.90;;;;;;;16.16;100.00;101987.72;4970739;28;20114;-60
2023/05/21 04:36:33;;;;;;;9.15;5.80;;;;;;;16.06;100.00;101983.69;4969969;28;20078;-59
2023/05/21 04:38:58;;;;;;;11.18;5.97;;;;;;;16.02;100.00;101993.56;4969173;28;20031;-59
2023/05/21 04:41:24;;;;;;;8.02;5.40;;;;;;;16.09;100.00;101996.88;4970201;28;20034;-59
2023/05/21 04:43:53;;;;;;;10.52;6.25;;;;;;;16.02;100.00;101998.03;4969784;28;20026;-61
2023/05/21 04:46:25;;;;;;;10.40;6.00;;;;;;;16.03;100.00;101991.78;4985132;28;20031;-61
2023/05/21 04:48:53;;;;;;;8.25;5.90;;;;;;;16.10;100.00;101987.94;4970452;28;20038;-59
2023/05/21 04:51:20;;;;;;;10.32;5.78;;;;;;;16.16;100.00;101981.53;4970265;28;20033;-60
2023/05/21 04:53:46;;;;;;;9.30;6.05;;;;;;;16.23;100.00;101987.47;4983983;28;20486;-60
2023/05/21 04:56:12;;;;;;;10.50;6.30;;;;;;;16.05;100.00;101987.28;4970105;28;20035;-59
2023/05/21 04:58:39;;;;;;;9.80;6.30;;;;;;;16.23;100.00;101996.34;4970343;28;20038;-61
2023/05/21 05:01:05;;;;;;;11.15;6.28;;;;;;;15.97;100.00;101986.69;4969773;28;20540;-59
2023/05/21 05:03:30;;;;;;;10.20;6.25;;;;;;;15.99;100.00;101982.19;4969896;28;20035;-59
2023/05/21 05:05:55;;;;;;;9.70;6.35;;;;;;;16.02;100.00;101982.91;4970156;28;20026;-61
2023/05/21 05:08:21;;;;;;;9.98;6.20;;;;;;;15.97;100.00;101986.69;4969733;28;20030;-63
2023/05/21 05:10:46;;;;;;;9.95;6.55;;;;;;;15.91;100.00;101986.00;4969795;28;20109;-60
2023/05/21 05:13:12;;;;;;;9.15;6.45;;;;;;;16.10;100.00;101982.63;4970188;28;20051;-61
2023/05/21 05:15:37;;;;;;;11.40;6.63;;;;;;;16.07;100.00;101985.41;4970477;28;20030;-61
2023/05/21 05:18:02;;;;;;;13.00;6.32;;;;;;;15.99;100.00;101984.84;4970426;28;20031;-60
2023/05/21 05:20:27;;;;;;;9.38;5.85;;;;;;;16.04;100.00;101982.88;4984274;28;20039;-67
2023/05/21 05:22:53;;;;;;;8.32;6.13;;;;;;;16.09;100.00;101978.25;4969360;28;20122;-61
2023/05/21 05:25:18;;;;;;;10.27;5.97;;;;;;;16.26;100.00;101982.03;4968794;28;20030;-60
2023/05/21 05:27:44;;;;;;;10.45;6.20;;;;;;;16.19;100.00;101983.22;4968739;28;20034;-61
2023/05/21 05:30:09;;;;;;;18.73;6.57;;;;;;;16.16;100.00;101976.19;4970536;28;20031;-59
2023/05/21 05:32:35;;;;;;;10.30;5.70;;;;;;;16.29;100.00;101976.59;4969801;28;20386;-60
2023/05/21 05:35:01;;;;;;;8.23;5.85;;;;;;;16.46;100.00;101967.06;4968985;28;20038;-61
2023/05/21 05:37:27;;;;;;;7.75;5.72;;;;;;;16.27;100.00;101970.47;4968393;28;20034;-62
2023/05/21 05:39:52;;;;;;;8.77;5.85;;;;;;;16.51;100.00;101970.41;4968409;28;20033;-61
2023/05/21 05:42:17;;;;;;;6.93;5.40;;;;;;;16.46;100.00;101964.41;4968784;28;20031;-61
2023/05/21 05:44:42;;;;;;;7.90;5.57;;;;;;;16.58;100.00;101966.56;4969070;28;20033;-60
2023/05/21 05:47:09;;;;;;;8.93;5.57;;;;;;;16.62;100.00;101961.97;4969577;28;20062;-62
2023/05/21 05:49:35;;;;;;;8.50;5.43;;;;;;;16.60;100.00;101964.72;4968619;28;20035;-59
2023/05/21 05:52:01;;;;;;;7.30;4.95;;;;;;;16.41;100.00;101952.16;4968136;28;20054;-60
2023/05/21 05:54:26;;;;;;;8.90;5.60;;;;;;;16.29;100.00;101960.66;4968255;28;20078;-60
2023/05/21 05:56:52;;;;;;;9.60;4.80;;;;;;;16.50;100.00;101960.69;4968315;28;20109;-62
2023/05/21 05:59:17;;;;;;;6.25;4.78;;;;;;;16.46;100.00;101953.78;4968613;28;20096;-59
2023/05/21 06:01:42;;;;;;;7.35;5.00;;;;;;;16.54;100.00;101956.97;4968477;28;20548;-63
2023/05/21 06:04:07;;;;;;;5.55;4.82;;;;;;;16.44;100.00;101959.16;4968848;28;20718;-60
2023/05/21 06:06:33;;;;;;;10.10;5.35;;;;;;;16.45;100.00;101954.69;4968095;28;20319;-60
2023/05/21 06:08:59;;;;;;;8.52;5.40;;;;;;;16.57;100.00;101964.84;4966961;28;20812;-59
2023/05/21 06:11:25;;;;;;;7.57;5.45;;;;;;;16.51;100.00;101970.41;4968945;28;20023;-62
2023/05/21 06:13:50;;;;;;;8.20;4.80;;;;;;;16.39;100.00;101972.66;4968026;28;20532;-61
2023/05/21 06:16:16;;;;;;;6.80;5.20;;;;;;;16.58;100.00;101969.22;4968873;28;20485;-60
2023/05/21 06:18:41;;;;;;;6.03;5.20;;;;;;;16.47;100.00;101976.78;4968340;28;20473;-61
2023/05/21 06:21:06;;;;;;;7.53;5.30;;;;;;;16.62;100.00;101965.50;4968135;28;20054;-61
2023/05/21 06:23:34;;;;;;;6.30;5.03;;;;;;;16.68;100.00;101970.56;4967371;28;20046;-62
2023/05/21 06:25:59;;;;;;;6.70;5.10;;;;;;;17.07;100.00;101968.13;4968342;28;20417;-60
2023/05/21 06:28:25;;;;;;;8.48;5.25;;;;;;;17.25;100.00;101965.56;4968101;28;20111;-62
2023/05/21 06:30:50;;;;;;;6.82;4.85;;;;;;;16.83;100.00;101970.88;4968749;28;20477;-60
2023/05/21 06:33:15;;;;;;;9.10;4.97;;;;;;;16.60;100.00;101975.34;4968848;28;20035;-60
2023/05/21 06:35:41;;;;;;;7.53;4.80;;;;;;;16.86;100.00;101973.38;4968241;28;20026;-60
2023/05/21 06:38:06;;;;;;;10.13;5.03;;;;;;;16.68;100.00;101977.69;4967204;28;20034;-64
2023/05/21 06:40:31;;;;;;;6.30;5.07;;;;;;;16.76;100.00;101974.69;4967595;28;20858;-60
2023/05/21 06:42:58;;;;;;;6.57;4.65;;;;;;;16.82;100.00;101979.75;4967763;28;20492;-62
2023/05/21 06:45:24;;;;;;;9.82;5.20;;;;;;;16.65;100.00;101973.34;4968775;28;20019;-60
2023/05/21 06:47:49;;;;;;;9.63;5.72;;;;;;;16.67;100.00;101981.25;4968088;28;20119;-60
2023/05/21 06:50:15;;;;;;;8.10;5.50;;;;;;;16.64;100.00;101981.38;4967949;28;20023;-60
2023/05/21 06:52:40;;;;;;;8.85;5.13;;;;;;;16.49;100.00;101980.22;4968194;28;20105;-60
2023/05/21 06:55:06;;;;;;;10.70;5.63;;;;;;;16.66;100.00;101975.09;4966904;28;20051;-62
2023/05/21 06:57:32;;;;;;;7.07;5.38;;;;;;;16.76;100.00;101970.25;4967252;28;20031;-59
2023/05/21 06:59:57;;;;;;;12.45;4.80;;;;;;;17.02;100.00;101980.72;4967725;28;20037;-61
2023/05/21 07:02:22;;;;;;;9.88;5.53;;;;;;;17.26;100.00;101973.50;4968641;28;20055;-60
2023/05/21 07:04:48;;;;;;;10.50;5.32;;;;;;;17.35;100.00;101972.22;4967586;28;20096;-62
2023/05/21 07:07:13;;;;;;;11.07;5.05;;;;;;;17.59;100.00;101974.69;4970101;28;20049;-60
2023/05/21 07:09:38;;;;;;;8.65;4.60;;;;;;;17.77;100.00;101982.78;4972220;28;20019;-61
2023/05/21 07:12:04;;;;;;;6.45;5.20;;;;;;;17.77;100.00;101982.78;4967840;28;20398;-62
2023/05/21 07:14:29;;;;;;;9.32;5.07;;;;;;;17.57;100.00;101987.22;4949434;28;20145;-60
2023/05/21 07:16:54;;;;;;;12.93;5.78;;;;;;;17.79;100.00;101988.91;4964100;28;20055;-60
2023/05/21 07:19:20;;;;;;;6.80;4.85;;;;;;;18.12;100.00;101987.44;4961105;28;20046;-59
2023/05/21 07:21:45;;;;;;;5.93;4.70;;;;;;;18.34;100.00;101992.59;4954934;28;20077;-62
2023/05/21 07:24:11;;;;;;;8.68;5.65;;;;;;;17.86;100.00;101986.81;4970877;28;20038;-62
2023/05/21 07:26:36;;;;;;;5.68;5.03;;;;;;;17.85;100.00;101983.28;4977827;28;20457;-62
2023/05/21 07:29:01;;;;;;;6.72;5.03;;;;;;;17.52;100.00;101990.09;4966222;28;20101;-61
2023/05/21 07:31:27;;;;;;;8.73;5.40;;;;;;;17.71;100.00;101983.06;4966712;28;20110;-60
2023/05/21 07:33:52;;;;;;;11.80;5.60;;;;;;;17.91;100.00;101984.81;4965009;28;20488;-63
2023/05/21 07:36:17;;;;;;;9.02;5.10;;;;;;;18.06;100.00;101986.75;4965588;28;20054;-61
2023/05/21 07:38:43;;;;;;;7.35;4.70;;;;;;;18.00;100.00;101987.03;4963420;28;20030;-61
2023/05/21 07:41:08;;;;;;;8.00;5.20;;;;;;;18.20;100.00;101982.59;4976879;28;20525;-60
2023/05/21 07:43:34;;;;;;;15.38;5.90;;;;;;;18.30;100.00;101983.00;4965161;28;20110;-62
2023/05/21 07:46:00;;;;;;;7.63;5.55;;;;;;;18.37;100.00;101981.78;4967805;28;20027;-61
2023/05/21 07:48:25;;;;;;;8.98;5.25;;;;;;;18.31;100.00;101982.91;4967023;28;20038;-61
2023/05/21 07:50:51;;;;;;;7.57;5.50;;;;;;;18.40;100.00;101975.41;4963891;28;20081;-58
2023/05/21 07:53:17;;;;;;;8.00;5.57;;;;;;;18.14;100.00;101978.41;4966906;28;20037;-61
2023/05/21 07:55:46;;;;;;;7.65;5.18;;;;;;;18.54;100.00;101972.91;4967245;28;20313;-60
2023/05/21 07:58:17;;;;;;;9.07;5.38;;;;;;;18.80;100.00;101977.88;4970623;28;20117;-63
2023/05/21 08:00:44;;;;;;;9.65;5.55;;;;;;;19.10;100.00;101963.94;4985968;28;20030;-63
2023/05/21 08:03:10;;;;;;;6.25;5.00;;;;;;;19.03;100.00;101966.00;4974082;28;20027;-60
2023/05/21 08:05:36;;;;;;;8.55;5.25;;;;;;;19.00;100.00;101965.31;4968549;28;20065;-61
2023/05/21 08:08:01;;;;;;;9.52;5.82;;;;;;;19.28;100.00;101975.47;4967308;28;20054;-61
2023/05/21 08:10:27;;;;;;;12.00;6.20;;;;;;;19.20;100.00;101966.97;4969392;28;20355;-62
2023/05/21 08:12:52;;;;;;;8.38;6.03;;;;;;;18.89;100.00;101974.75;4974139;28;20648;-61
2023/05/21 08:15:17;;;;;;;8.65;5.68;;;;;;;18.95;100.00;101968.22;4980669;28;20050;-61
2023/05/21 08:17:43;;;;;;;9.30;5.90;;;;;;;18.88;100.00;101961.47;4963786;28;20062;-61
2023/05/21 08:20:09;;;;;;;10.75;5.68;;;;;;;19.43;100.00;101965.75;4969457;28;20059;-61
2023/05/21 08:22:34;;;;;;;6.80;5.45;;;;;;;19.49;100.00;101971.72;4970846;28;20038;-62
2023/05/21 08:25:00;;;;;;;11.27;5.15;;;;;;;19.55;100.00;101969.59;4972293;28;20027;-61
2023/05/21 08:27:25;;;;;;;10.10;5.35;;;;;;;19.32;100.00;101968.13;4965158;28;20478;-63
2023/05/21 08:29:51;;;;;;;11.73;5.57;;;;;;;18.97;100.00;101979.72;4972538;28;20035;-62
2023/05/21 08:32:16;;;;;;;10.88;5.60;;;;;;;19.13;100.00;101976.25;4969113;28;20027;-61
2023/05/21 08:34:42;;;;;;;9.57;5.90;;;;;;;19.12;100.00;101977.22;4970502;28;20380;-62
2023/05/21 08:37:07;;;;;;;6.55;4.50;;;;;;;19.45;100.00;101969.19;4970121;28;20026;-60
2023/05/21 08:39:32;;;;;;;6.32;5.03;;;;;;;19.45;100.00;101963.00;4967617;28;20030;-63
2023/05/21 08:42:05;;;;;;;9.27;5.15;;;;;;;19.82;99.65;101965.47;4969581;28;20027;-60
2023/05/21 08:44:32;;;;;;;6.25;4.78;;;;;;;19.83;98.46;101970.72;4961828;28;20015;-60
2023/05/21 08:46:58;;;;;;;7.63;5.13;;;;;;;19.69;100.00;101963.47;4979293;28;20449;-62
2023/05/21 08:49:25;;;;;;;7.15;4.70;;;;;;;19.83;99.76;101961.84;4979301;28;20102;-60
2023/05/21 08:51:52;;;;;;;7.28;4.65;;;;;;;19.60;99.57;101963.13;4968640;28;20478;-61
2023/05/21 08:54:17;;;;;;;6.47;4.78;;;;;;;19.79;98.72;101957.63;4969038;28;20023;-60
2023/05/21 08:56:48;;;;;;;6.70;4.38;;;;;;;19.81;97.10;101959.25;4968096;28;20136;-63
2023/05/21 08:59:14;;;;;;;8.85;5.00;;;;;;;20.26;94.84;101965.75;4969655;28;20026;-61
2023/05/21 09:01:41;;;;;;;13.73;4.97;;;;;;;19.98;96.08;101968.13;4964658;28;20436;-61
2023/05/21 09:04:07;;;;;;;7.47;4.30;;;;;;;20.35;95.39;101972.38;4947940;28;20030;-60
2023/05/21 09:06:32;;;;;;;7.75;4.82;;;;;;;20.17;93.23;101964.47;4964795;28;20125;-62
2023/05/21 09:09:13;;;;;;;7.25;4.68;;;;;;;20.13;93.90;101957.53;4965217;28;20426;-63
2023/05/21 09:11:41;;;;;;;7.32;4.82;;;;;;;19.74;98.04;101965.03;4955251;28;20026;-59
2023/05/21 09:14:06;;;;;;;5.90;4.50;;;;;;;19.80;96.77;101949.50;4967596;28;20433;-58
2023/05/21 09:16:31;;;;;;;7.15;4.40;;;;;;;20.02;96.17;101952.81;4965887;28;20035;-59
2023/05/21 09:18:56;;;;;;;6.22;4.85;;;;;;;19.59;96.90;101954.22;4967575;28;20105;-62
2023/05/21 09:21:27;;;;;;;7.95;4.72;;;;;;;19.86;94.34;101952.81;4967917;28;20050;-59
2023/05/21 09:23:56;;;;;;;10.18;5.18;;;;;;;19.54;95.87;101945.59;4964318;28;20489;-66
2023/05/21 09:26:23;;;;;;;7.80;4.68;;;;;;;19.91;96.63;101953.38;4965712;28;20015;-62
2023/05/21 09:28:48;;;;;;;8.07;4.70;;;;;;;20.28;92.82;101955.81;4967003;28;20022;-61
2023/05/21 09:31:13;;;;;;;7.85;4.47;;;;;;;20.05;93.86;101945.47;4967341;28;20031;-64
2023/05/21 09:33:45;;;;;;;22.85;5.63;;;;;;;19.77;95.24;101941.66;4969797;28;20055;-64
2023/05/21 09:36:10;;;;;;;7.97;5.13;;;;;;;20.12;93.69;101945.13;4969212;28;20050;-61
2023/05/21 09:38:35;;;;;;;13.45;4.65;;;;;;;20.25;91.84;101945.28;4979559;28;20373;-60
2023/05/21 09:41:04;;;;;;;9.48;4.20;;;;;;;20.16;93.01;101944.88;4967865;28;20031;-58
2023/05/21 09:43:29;;;;;;;6.95;4.15;;;;;;;20.10;93.98;101939.88;4983882;28;20496;-58
2023/05/21 09:45:55;;;;;;;9.55;4.65;;;;;;;20.33;93.09;101935.88;4986750;28;20026;-59
2023/05/21 09:48:37;;;;;;;4.43;4.03;;;;;;;20.62;91.80;101935.09;4983845;28;20048;-58
2023/05/21 09:51:11;;;;;;;7.07;3.92;;;;;;;20.67;90.46;101934.81;4967529;28;20469;-58
2023/05/21 09:53:50;;;;;;;8.48;4.07;;;;;;;20.98;90.27;101932.16;4967176;28;20089;-60
2023/05/21 09:56:23;;;;;;;;;;;;;;;20.64;91.99;101927.84;4970662;28;20097;-58
2023/05/21 09:58:50;;;;;;;6.43;4.53;;;;;;;20.44;91.35;101937.91;4966796;28;19968;-58
2023/05/21 10:01:18;;;;;;;7.30;4.63;;;;;;;20.35;92.08;101934.91;4965081;28;20122;-60
2023/05/21 10:03:48;;;;;;;7.10;4.57;;;;;;;20.29;92.60;101931.63;4970737;28;20045;-60
2023/05/21 10:06:13;;;;;;;7.05;4.95;;;;;;;20.11;93.73;101928.22;4985088;28;20026;-60
2023/05/21 10:08:42;;;;;;;8.05;4.85;;;;;;;20.53;93.76;101922.28;4982714;28;20033;-62
2023/05/21 10:11:07;;;;;;;11.45;4.18;;;;;;;21.06;93.73;101933.41;4984835;28;20054;-60
2023/05/21 10:13:38;;;;;;;10.23;4.90;;;;;;;20.99;90.76;101928.50;4982842;28;20077;-61
2023/05/21 10:16:04;;;;;;;5.57;4.45;;;;;;;20.70;91.92;101924.81;4982023;28;20030;-61
2023/05/21 10:18:31;;;;;;;8.30;4.80;;;;;;;20.64;91.98;101911.78;4983205;28;20445;-59
2023/05/21 10:20:57;;;;;;;8.15;4.72;;;;;;;20.58;92.61;101914.81;4984064;28;20065;-61
2023/05/21 10:23:22;;;;;;;9.27;4.47;;;;;;;20.86;91.77;101917.66;4984518;28;20058;-61
2023/05/21 10:25:48;;;;;;;9.88;5.07;;;;;;;20.95;89.83;101909.09;4981717;28;20042;-61
2023/05/21 10:28:15;;;;;;;10.50;5.00;;;;;;;20.40;92.86;101917.63;4985321;28;20282;-60
2023/05/21 10:30:41;;;;;;;8.15;5.15;;;;;;;20.14;93.88;101920.00;4984340;28;20672;-57
2023/05/21 10:33:06;;;;;;;9.70;5.15;;;;;;;20.15;93.17;101918.19;4982431;28;20034;-58
2023/05/21 10:35:32;;;;;;;9.07;5.13;;;;;;;19.95;95.95;101910.34;4983995;28;20102;-60
2023/05/21 10:37:57;;;;;;;6.38;5.10;;;;;;;20.49;94.59;101912.69;4984233;28;20030;-57
2023/05/21 10:40:23;;;;;;;7.75;4.70;;;;;;;21.02;92.54;101890.81;4985903;28;20026;-60
2023/05/21 10:43:13;;;;;;;6.45;4.80;;;;;;;21.60;90.04;101901.50;4975281;28;20058;-59
2023/05/21 10:46:00;;;;;;;11.60;5.25;;;;;;;21.58;91.19;101893.53;4973244;28;20084;-58
2023/05/21 10:48:40;;;;;;;12.98;4.80;;;;;;;21.45;88.77;101901.53;4968648;28;20049;-59
2023/05/21 10:51:23;;;;;;;4.90;4.03;;;;;;;21.25;88.83;101899.25;4958484;28;20105;-59
2023/05/21 10:54:16;;;;;;;6.68;4.60;;;;;;;21.43;88.46;101898.06;4966280;28;20034;-60
2023/05/21 10:57:08;;;;;;;5.93;4.47;;;;;;;21.81;87.91;101898.41;4959689;28;20046;-60
2023/05/21 10:59:40;;;;;;;10.05;5.38;;;;;;;21.96;88.14;101904.59;4943148;28;20481;-59
2023/05/21 11:02:05;;;;;;;10.07;5.38;;;;;;;21.83;86.61;101897.34;4957984;28;20027;-60
2023/05/21 11:04:31;;;;;;;6.47;4.80;;;;;;;21.73;85.98;101896.19;4966503;28;20030;-61
2023/05/21 11:06:57;;;;;;;6.03;4.40;;;;;;;21.66;85.41;101893.06;4968211;28;20109;-58
2023/05/21 11:09:22;;;;;;;7.03;5.35;;;;;;;21.33;87.16;101891.56;4963811;28;20034;-60
2023/05/21 11:11:52;;;;;;;7.28;5.20;;;;;;;21.40;86.71;101887.53;4956684;28;20042;-58
2023/05/21 11:14:31;;;;;;;8.93;4.88;;;;;;;21.56;87.93;101886.56;4948334;28;20040;-59